createdAt,value
2022-12-01T00:01:08.409Z,100.00
2022-12-01T00:03:35.691Z,100.00
2022-12-01T00:06:05.890Z,100.00
2022-12-01T00:08:33.508Z,100.00
2022-12-01T00:11:12.123Z,100.00
2022-12-01T00:13:38.879Z,100.00
2022-12-01T00:16:13.131Z,100.00
2022-12-01T00:18:39.775Z,100.00
2022-12-01T00:21:06.949Z,100.00
2022-12-01T00:23:33.542Z,100.00
2022-12-01T00:26:05.265Z,100.00
2022-12-01T00:28:32.249Z,100.00
2022-12-01T00:31:00.131Z,100.00
2022-12-01T00:33:26.789Z,100.00
2022-12-01T00:36:00.398Z,100.00
2022-12-01T00:38:27.657Z,100.00
2022-12-01T00:40:54.437Z,100.00
2022-12-01T00:43:21.115Z,100.00
2022-12-01T00:45:47.974Z,100.00
2022-12-01T00:48:14.622Z,100.00
2022-12-01T00:50:41.312Z,100.00
2022-12-01T00:53:07.921Z,100.00
2022-12-01T00:55:34.620Z,100.00
2022-12-01T00:58:01.344Z,100.00
2022-12-01T01:00:27.936Z,100.00
2022-12-01T01:02:54.512Z,100.00
2022-12-01T01:05:21.072Z,100.00
2022-12-01T01:07:47.672Z,100.00
2022-12-01T01:10:14.312Z,100.00
2022-12-01T01:12:40.874Z,100.00
2022-12-01T01:15:07.909Z,100.00
2022-12-01T01:17:34.795Z,100.00
2022-12-01T01:20:01.547Z,100.00
2022-12-01T01:22:28.127Z,100.00
2022-12-01T01:24:54.701Z,100.00
2022-12-01T01:27:21.274Z,100.00
2022-12-01T01:29:48.097Z,100.00
2022-12-01T01:32:14.909Z,100.00
2022-12-01T01:34:41.461Z,100.00
2022-12-01T01:37:08.046Z,100.00
2022-12-01T01:39:34.634Z,100.00
2022-12-01T01:42:01.204Z,100.00
2022-12-01T01:44:51.055Z,100.00
2022-12-01T01:47:22.915Z,100.00
2022-12-01T01:49:49.960Z,100.00
2022-12-01T01:52:18.036Z,100.00
2022-12-01T01:54:47.656Z,100.00
2022-12-01T01:57:19.932Z,100.00
2022-12-01T01:59:52.154Z,100.00
2022-12-01T02:02:18.840Z,100.00
2022-12-01T02:04:49.100Z,100.00
2022-12-01T02:07:18.542Z,100.00
2022-12-01T02:09:45.613Z,100.00
2022-12-01T02:12:27.631Z,100.00
2022-12-01T02:15:28.372Z,100.00
2022-12-01T02:17:54.741Z,100.00
2022-12-01T02:20:36.562Z,100.00
2022-12-01T02:23:58.350Z,100.00
2022-12-01T02:26:46.580Z,100.00
2022-12-01T02:29:25.162Z,100.00
2022-12-01T02:32:07.804Z,100.00
2022-12-01T02:34:59.392Z,100.00
2022-12-01T02:37:43.029Z,100.00
2022-12-01T02:40:16.590Z,100.00
2022-12-01T02:43:22.360Z,100.00
2022-12-01T02:45:56.627Z,100.00
2022-12-01T02:48:33.705Z,100.00
2022-12-01T02:51:14.798Z,100.00
2022-12-01T02:53:41.742Z,100.00
2022-12-01T02:56:12.771Z,100.00
2022-12-01T02:58:39.447Z,100.00
2022-12-01T03:01:18.312Z,100.00
2022-12-01T03:04:05.414Z,100.00
2022-12-01T03:06:40.878Z,100.00
2022-12-01T03:09:16.233Z,100.00
2022-12-01T03:12:04.575Z,100.00
2022-12-01T03:14:45.633Z,100.00
2022-12-01T03:17:19.023Z,100.00
2022-12-01T03:19:53.658Z,100.00
2022-12-01T03:22:26.098Z,100.00
2022-12-01T03:24:55.823Z,100.00
2022-12-01T03:27:27.596Z,100.00
2022-12-01T03:29:58.159Z,100.00
2022-12-01T03:32:37.983Z,100.00
2022-12-01T03:35:07.712Z,100.00
2022-12-01T03:37:41.844Z,100.00
2022-12-01T03:40:12.956Z,100.00
2022-12-01T03:42:47.630Z,100.00
2022-12-01T03:45:22.203Z,100.00
2022-12-01T03:47:48.763Z,100.00
2022-12-01T03:50:18.595Z,100.00
2022-12-01T03:53:13.955Z,100.00
2022-12-01T03:55:44.092Z,100.00
2022-12-01T03:58:20.578Z,100.00
2022-12-01T04:00:50.035Z,100.00
2022-12-01T04:03:18.975Z,100.00
2022-12-01T04:05:48.947Z,100.00
2022-12-01T04:08:15.617Z,100.00
2022-12-01T04:10:42.338Z,100.00
2022-12-01T04:13:16.348Z,100.00
2022-12-01T04:15:43.791Z,100.00
2022-12-01T04:18:10.424Z,100.00
2022-12-01T04:20:36.964Z,100.00
2022-12-01T04:23:03.552Z,100.00
2022-12-01T04:25:30.150Z,100.00
2022-12-01T04:27:56.736Z,100.00
2022-12-01T04:30:23.368Z,100.00
2022-12-01T04:32:50.269Z,100.00
2022-12-01T04:35:16.981Z,100.00
2022-12-01T04:37:43.545Z,100.00
2022-12-01T04:40:10.809Z,100.00
2022-12-01T04:42:37.369Z,100.00
2022-12-01T04:45:04.208Z,100.00
2022-12-01T04:47:30.772Z,100.00
2022-12-01T04:49:57.349Z,100.00
2022-12-01T04:52:23.895Z,100.00
2022-12-01T04:54:50.435Z,100.00
2022-12-01T04:57:17.055Z,100.00
2022-12-01T04:59:43.607Z,100.00
2022-12-01T05:02:10.192Z,100.00
2022-12-01T05:04:38.862Z,100.00
2022-12-01T05:07:05.555Z,100.00
2022-12-01T05:09:35.317Z,100.00
2022-12-01T05:12:01.887Z,100.00
2022-12-01T05:14:28.501Z,100.00
2022-12-01T05:16:56.030Z,100.00
2022-12-01T05:19:41.113Z,100.00
2022-12-01T05:22:07.761Z,100.00
2022-12-01T05:24:34.298Z,100.00
2022-12-01T05:27:00.898Z,100.00
2022-12-01T05:29:27.552Z,100.00
2022-12-01T05:31:54.238Z,100.00
2022-12-01T05:34:23.673Z,100.00
2022-12-01T05:36:51.581Z,100.00
2022-12-01T05:39:18.186Z,100.00
2022-12-01T05:41:44.895Z,100.00
2022-12-01T05:44:11.473Z,100.00
2022-12-01T05:46:38.025Z,100.00
2022-12-01T05:49:05.556Z,100.00
2022-12-01T05:51:32.186Z,100.00
2022-12-01T05:54:02.130Z,100.00
2022-12-01T05:56:28.768Z,100.00
2022-12-01T05:58:55.441Z,100.00
2022-12-01T06:01:22.020Z,100.00
2022-12-01T06:03:48.699Z,100.00
2022-12-01T06:06:17.549Z,100.00
2022-12-01T06:08:44.184Z,100.00
2022-12-01T06:11:11.163Z,100.00
2022-12-01T06:13:37.926Z,100.00
2022-12-01T06:16:06.422Z,100.00
2022-12-01T06:18:37.850Z,100.00
2022-12-01T06:21:06.438Z,100.00
2022-12-01T06:23:33.091Z,100.00
2022-12-01T06:25:59.735Z,100.00
2022-12-01T06:28:26.460Z,100.00
2022-12-01T06:30:56.527Z,100.00
2022-12-01T06:33:25.997Z,100.00
2022-12-01T06:36:00.365Z,100.00
2022-12-01T06:38:30.373Z,100.00
2022-12-01T06:40:57.351Z,100.00
2022-12-01T06:43:23.919Z,100.00
2022-12-01T06:45:50.856Z,100.00
2022-12-01T06:48:18.542Z,100.00
2022-12-01T06:50:45.275Z,100.00
2022-12-01T06:53:11.877Z,100.00
2022-12-01T06:55:39.520Z,100.00
2022-12-01T06:58:06.519Z,100.00
2022-12-01T07:00:33.457Z,100.00
2022-12-01T07:03:00.050Z,100.00
2022-12-01T07:05:26.679Z,100.00
2022-12-01T07:07:59.163Z,100.00
2022-12-01T07:10:27.765Z,100.00
2022-12-01T07:12:57.152Z,100.00
2022-12-01T07:15:24.446Z,100.00
2022-12-01T07:17:50.995Z,100.00
2022-12-01T07:20:17.637Z,100.00
2022-12-01T07:22:44.212Z,100.00
2022-12-01T07:25:10.842Z,100.00
2022-12-01T07:27:37.417Z,100.00
2022-12-01T07:30:04.392Z,100.00
2022-12-01T07:32:30.945Z,100.00
2022-12-01T07:34:57.518Z,100.00
2022-12-01T07:37:24.081Z,100.00
2022-12-01T07:39:50.890Z,100.00
2022-12-01T07:42:17.708Z,100.00
2022-12-01T07:44:44.267Z,100.00
2022-12-01T07:47:10.862Z,100.00
2022-12-01T07:49:40.144Z,100.00
2022-12-01T07:52:06.715Z,100.00
2022-12-01T07:54:33.316Z,100.00
2022-12-01T07:56:59.905Z,100.00
2022-12-01T07:59:26.484Z,100.00
2022-12-01T08:01:53.069Z,100.00
2022-12-01T08:04:19.741Z,100.00
2022-12-01T08:06:46.280Z,100.00
2022-12-01T08:09:12.822Z,100.00
2022-12-01T08:11:39.404Z,100.00
2022-12-01T08:14:05.976Z,100.00
2022-12-01T08:16:32.691Z,100.00
2022-12-01T08:18:59.296Z,100.00
2022-12-01T08:21:25.996Z,100.00
2022-12-01T08:24:00.173Z,100.00
2022-12-01T08:26:27.549Z,100.00
2022-12-01T08:28:54.169Z,100.00
2022-12-01T08:31:24.300Z,100.00
2022-12-01T08:33:52.074Z,100.00
2022-12-01T08:36:20.491Z,100.00
2022-12-01T08:38:49.287Z,100.00
2022-12-01T08:41:16.869Z,100.00
2022-12-01T08:44:01.007Z,100.00
2022-12-01T08:46:33.143Z,97.16
2022-12-01T08:49:00.094Z,93.99
2022-12-01T08:51:27.207Z,82.70
2022-12-01T08:53:55.832Z,74.93
2022-12-01T08:56:25.747Z,72.34
2022-12-01T08:58:54.201Z,66.94
2022-12-01T09:01:21.329Z,62.21
2022-12-01T09:03:48.359Z,63.96
2022-12-01T09:06:20.292Z,60.65
2022-12-01T09:08:47.416Z,58.27
2022-12-01T09:11:17.424Z,56.06
2022-12-01T09:13:48.612Z,53.73
2022-12-01T09:16:20.509Z,55.28
2022-12-01T09:18:47.943Z,52.51
2022-12-01T09:21:19.283Z,54.47
2022-12-01T09:23:46.202Z,52.20
2022-12-01T09:26:18.068Z,51.73
2022-12-01T09:28:45.762Z,53.62
2022-12-01T09:31:14.196Z,55.61
2022-12-01T09:33:41.186Z,61.19
2022-12-01T09:36:09.185Z,60.37
2022-12-01T09:38:37.160Z,63.82
2022-12-01T09:41:19.107Z,64.50
2022-12-01T09:44:28.123Z,61.85
2022-12-01T09:47:05.662Z,62.37
2022-12-01T09:50:14.476Z,65.45
2022-12-01T09:52:48.099Z,65.43
2022-12-01T09:55:17.478Z,64.59
2022-12-01T09:57:48.021Z,63.05
2022-12-01T10:00:21.346Z,60.11
2022-12-01T10:02:58.514Z,58.21
2022-12-01T10:05:34.474Z,58.52
2022-12-01T10:08:05.604Z,60.28
2022-12-01T10:10:39.974Z,60.77
2022-12-01T10:13:19.152Z,61.11
2022-12-01T10:15:57.481Z,62.51
2022-12-01T10:18:42.582Z,66.85
2022-12-01T10:21:18.167Z,66.07
2022-12-01T10:24:18.766Z,64.55
2022-12-01T10:26:54.708Z,63.98
2022-12-01T10:29:32.198Z,60.53
2022-12-01T10:32:09.437Z,62.20
2022-12-01T10:34:40.266Z,62.37
2022-12-01T10:37:15.879Z,64.95
2022-12-01T10:39:46.476Z,65.37
2022-12-01T10:42:36.713Z,61.24
2022-12-01T10:45:07.351Z,61.12
2022-12-01T10:47:34.160Z,62.97
2022-12-01T10:50:03.214Z,57.47
2022-12-01T10:52:37.526Z,61.68
2022-12-01T10:55:23.437Z,64.44
2022-12-01T10:57:50.916Z,62.81
2022-12-01T11:00:58.198Z,63.65
2022-12-01T11:03:22.022Z,61.68
2022-12-01T11:05:54.761Z,63.20
2022-12-01T11:08:29.858Z,64.56
2022-12-01T11:10:57.059Z,61.35
2022-12-01T11:13:30.149Z,64.94
2022-12-01T11:16:02.393Z,65.64
2022-12-01T11:18:34.987Z,62.60
2022-12-01T11:21:14.278Z,58.37
2022-12-01T11:23:48.836Z,60.89
2022-12-01T11:26:26.335Z,58.47
2022-12-01T11:29:23.207Z,63.75
2022-12-01T11:31:51.235Z,59.29
2022-12-01T11:34:34.352Z,61.17
2022-12-01T11:37:17.739Z,60.16
2022-12-01T11:39:47.786Z,60.32
2022-12-01T11:42:14.502Z,62.64
2022-12-01T11:45:07.604Z,64.56
2022-12-01T11:47:34.321Z,62.25
2022-12-01T11:50:22.512Z,61.00
2022-12-01T11:52:51.273Z,60.33
2022-12-01T11:55:25.312Z,61.98
2022-12-01T11:57:55.430Z,63.63
2022-12-01T12:00:25.641Z,62.60
2022-12-01T12:03:03.648Z,65.38
2022-12-01T12:05:42.507Z,63.28
2022-12-01T12:08:16.665Z,63.58
2022-12-01T12:11:10.965Z,64.54
2022-12-01T12:13:52.992Z,63.73
2022-12-01T12:16:40.730Z,66.10
2022-12-01T12:19:12.006Z,67.33
2022-12-01T12:22:04.180Z,67.58
2022-12-01T12:24:37.300Z,71.19
2022-12-01T12:27:27.470Z,74.45
2022-12-01T12:30:19.390Z,75.78
2022-12-01T12:32:52.015Z,76.44
2022-12-01T12:35:43.586Z,78.61
2022-12-01T12:38:24.378Z,79.78
2022-12-01T12:41:09.170Z,79.44
2022-12-01T12:43:46.342Z,80.16
2022-12-01T12:46:16.577Z,81.22
2022-12-01T12:49:19.176Z,79.65
2022-12-01T12:51:55.690Z,80.75
2022-12-01T12:54:31.538Z,81.08
2022-12-01T12:57:04.673Z,80.97
2022-12-01T12:59:45.542Z,81.13
2022-12-01T13:02:21.520Z,83.06
2022-12-01T13:05:05.245Z,84.37
2022-12-01T13:07:38.236Z,83.44
2022-12-01T13:10:46.143Z,83.76
2022-12-01T13:13:31.292Z,83.30
2022-12-01T13:16:01.062Z,82.28
2022-12-01T13:18:41.270Z,83.43
2022-12-01T13:21:16.178Z,83.23
2022-12-01T13:23:45.144Z,82.05
2022-12-01T13:26:12.023Z,83.36
2022-12-01T13:28:49.516Z,84.89
2022-12-01T13:31:17.876Z,84.29
2022-12-01T13:34:05.715Z,85.70
2022-12-01T13:36:49.157Z,85.09
2022-12-01T13:39:25.347Z,86.78
2022-12-01T13:42:26.942Z,87.51
2022-12-01T13:44:59.804Z,87.74
2022-12-01T13:47:49.340Z,86.95
2022-12-01T13:50:39.564Z,87.54
2022-12-01T13:53:30.719Z,90.64
2022-12-01T13:56:07.662Z,90.50
2022-12-01T13:58:34.168Z,90.46
2022-12-01T14:01:19.608Z,90.18
2022-12-01T14:04:10.608Z,90.11
2022-12-01T14:06:49.382Z,91.39
2022-12-01T14:09:28.137Z,92.08
2022-12-01T14:12:15.039Z,91.07
2022-12-01T14:14:54.852Z,93.41
2022-12-01T14:17:26.419Z,94.07
2022-12-01T14:19:54.108Z,94.04
2022-12-01T14:22:43.915Z,95.70
2022-12-01T14:25:22.869Z,96.93
2022-12-01T14:27:56.036Z,96.00
2022-12-01T14:30:41.111Z,96.49
2022-12-01T14:33:45.237Z,95.21
2022-12-01T14:36:24.679Z,95.61
2022-12-01T14:38:54.692Z,95.84
2022-12-01T14:41:27.532Z,96.98
2022-12-01T14:44:05.440Z,98.68
2022-12-01T14:46:46.051Z,99.86
2022-12-01T14:49:38.690Z,100.00
2022-12-01T14:52:17.019Z,100.00
2022-12-01T14:54:47.745Z,100.00
2022-12-01T14:57:18.630Z,100.00
2022-12-01T14:59:45.292Z,100.00
2022-12-01T15:02:13.877Z,100.00
2022-12-01T15:05:08.409Z,100.00
2022-12-01T15:07:50.326Z,100.00
2022-12-01T15:10:25.639Z,100.00
2022-12-01T15:12:53.900Z,100.00
2022-12-01T15:15:24.434Z,100.00
2022-12-01T15:17:52.523Z,100.00
2022-12-01T15:20:41.300Z,100.00
2022-12-01T15:23:17.098Z,100.00
2022-12-01T15:25:46.014Z,100.00
2022-12-01T15:28:18.847Z,100.00
2022-12-01T15:30:52.850Z,100.00
2022-12-01T15:33:36.802Z,100.00
2022-12-01T15:36:05.228Z,100.00
2022-12-01T15:38:35.917Z,100.00
2022-12-01T15:44:01.953Z,100.00
2022-12-01T15:46:31.138Z,100.00
2022-12-01T15:49:14.654Z,100.00
2022-12-01T15:51:41.450Z,100.00
2022-12-01T15:54:18.726Z,100.00
2022-12-01T15:56:48.023Z,100.00
2022-12-01T15:59:14.514Z,100.00
2022-12-01T16:01:43.612Z,100.00
2022-12-01T16:04:22.468Z,100.00
2022-12-01T16:07:15.539Z,100.00
2022-12-01T16:09:58.418Z,100.00
2022-12-01T16:12:32.234Z,100.00
2022-12-01T16:15:03.261Z,100.00
2022-12-01T16:17:42.880Z,100.00
2022-12-01T16:20:24.114Z,100.00
2022-12-01T16:23:00.083Z,100.00
2022-12-01T16:25:39.127Z,100.00
2022-12-01T16:28:17.607Z,100.00
2022-12-01T16:30:44.292Z,100.00
2022-12-01T16:33:22.929Z,100.00
2022-12-01T16:35:50.528Z,100.00
2022-12-01T16:38:25.935Z,100.00
2022-12-01T16:40:58.380Z,100.00
2022-12-01T16:43:26.690Z,100.00
2022-12-01T16:46:00.499Z,100.00
2022-12-01T16:48:29.696Z,100.00
2022-12-01T16:50:57.083Z,100.00
2022-12-01T16:53:23.702Z,100.00
2022-12-01T16:55:58.509Z,100.00
2022-12-01T16:58:25.589Z,100.00
2022-12-01T17:00:52.859Z,100.00
2022-12-01T17:03:25.083Z,100.00
2022-12-01T17:05:52.479Z,100.00
2022-12-01T17:08:19.935Z,100.00
2022-12-01T17:10:49.597Z,100.00
2022-12-01T17:13:16.930Z,100.00
2022-12-01T17:15:46.033Z,100.00
2022-12-01T17:18:16.871Z,100.00
2022-12-01T17:20:46.412Z,100.00
2022-12-01T17:23:13.010Z,100.00
2022-12-01T17:25:42.637Z,100.00
2022-12-01T17:28:11.567Z,100.00
2022-12-01T17:30:38.291Z,100.00
2022-12-01T17:33:04.954Z,100.00
2022-12-01T17:35:31.646Z,100.00
2022-12-01T17:37:58.391Z,100.00
2022-12-01T17:40:24.974Z,100.00
2022-12-01T17:42:51.585Z,100.00
2022-12-01T17:45:19.034Z,100.00
2022-12-01T17:47:45.816Z,100.00
2022-12-01T17:50:12.438Z,100.00
2022-12-01T17:52:39.068Z,100.00
2022-12-01T17:55:08.563Z,100.00
2022-12-01T17:57:35.313Z,100.00
2022-12-01T18:00:02.429Z,100.00
2022-12-01T18:02:28.993Z,100.00
2022-12-01T18:04:55.609Z,100.00
2022-12-01T18:07:22.363Z,100.00
2022-12-01T18:09:48.987Z,100.00
2022-12-01T18:12:15.581Z,100.00
2022-12-01T18:14:42.206Z,100.00
2022-12-01T18:17:08.846Z,100.00
2022-12-01T18:19:35.495Z,100.00
2022-12-01T18:22:02.167Z,100.00
2022-12-01T18:24:29.692Z,100.00
2022-12-01T18:26:56.607Z,100.00
2022-12-01T18:29:26.238Z,100.00
2022-12-01T18:31:55.133Z,100.00
2022-12-01T18:34:21.838Z,100.00
2022-12-01T18:36:48.876Z,100.00
2022-12-01T18:39:15.520Z,100.00
2022-12-01T18:41:42.252Z,100.00
2022-12-01T18:44:09.192Z,100.00
2022-12-01T18:46:35.903Z,100.00
2022-12-01T18:49:03.151Z,100.00
2022-12-01T18:51:32.437Z,100.00
2022-12-01T18:54:00.975Z,100.00
2022-12-01T18:56:28.374Z,100.00
2022-12-01T18:59:00.661Z,100.00
2022-12-01T19:01:34.110Z,100.00
2022-12-01T19:04:01.826Z,100.00
2022-12-01T19:06:29.702Z,100.00
2022-12-01T19:09:00.019Z,100.00
2022-12-01T19:11:27.130Z,100.00
2022-12-01T19:13:55.901Z,100.00
2022-12-01T19:16:22.660Z,100.00
2022-12-01T19:18:49.377Z,100.00
2022-12-01T19:21:18.785Z,100.00
2022-12-01T19:23:46.497Z,100.00
2022-12-01T19:26:15.653Z,100.00
2022-12-01T19:28:45.323Z,100.00
2022-12-01T19:31:18.384Z,100.00
2022-12-01T19:33:45.960Z,100.00
2022-12-01T19:36:16.720Z,100.00
2022-12-01T19:38:44.655Z,100.00
2022-12-01T19:41:12.707Z,100.00
2022-12-01T19:43:39.501Z,100.00
2022-12-01T19:46:14.830Z,100.00
2022-12-01T19:48:41.724Z,100.00
2022-12-01T19:51:25.756Z,100.00
2022-12-01T19:53:53.987Z,100.00
2022-12-01T19:56:21.757Z,100.00
2022-12-01T19:58:48.369Z,100.00
2022-12-01T20:01:16.861Z,100.00
2022-12-01T20:03:48.731Z,100.00
2022-12-01T20:06:35.744Z,100.00
2022-12-01T20:09:04.551Z,100.00
2022-12-01T20:11:32.980Z,100.00
2022-12-01T20:13:59.838Z,100.00
2022-12-01T20:16:28.082Z,100.00
2022-12-01T20:18:55.065Z,100.00
2022-12-01T20:21:23.285Z,100.00
2022-12-01T20:24:00.994Z,100.00
2022-12-01T20:26:31.061Z,100.00
2022-12-01T20:29:01.601Z,100.00
2022-12-01T20:31:29.854Z,100.00
2022-12-01T20:33:57.931Z,100.00
2022-12-01T20:36:25.628Z,100.00
2022-12-01T20:38:53.003Z,100.00
2022-12-01T20:41:22.943Z,100.00
2022-12-01T20:43:49.835Z,100.00
2022-12-01T20:46:16.851Z,100.00
2022-12-01T20:48:43.520Z,100.00
2022-12-01T20:51:13.442Z,100.00
2022-12-01T20:53:40.307Z,100.00
2022-12-01T20:56:10.085Z,100.00
2022-12-01T20:58:38.194Z,100.00
2022-12-01T21:01:13.751Z,100.00
2022-12-01T21:03:43.240Z,100.00
2022-12-01T21:06:11.858Z,100.00
2022-12-01T21:08:40.393Z,100.00
2022-12-01T21:11:53.820Z,100.00
2022-12-01T21:14:27.887Z,100.00
2022-12-01T21:16:59.143Z,100.00
2022-12-01T21:19:49.571Z,100.00
2022-12-01T21:22:16.130Z,100.00
2022-12-01T21:24:44.164Z,100.00
2022-12-01T21:27:16.575Z,100.00
2022-12-01T21:29:50.377Z,100.00
2022-12-01T21:32:28.255Z,100.00
2022-12-01T21:34:59.622Z,100.00
2022-12-01T21:37:26.220Z,100.00
2022-12-01T21:39:56.089Z,100.00
2022-12-01T21:42:28.365Z,100.00
2022-12-01T21:44:56.721Z,100.00
2022-12-01T21:47:29.751Z,100.00
2022-12-01T21:49:59.326Z,100.00
2022-12-01T21:52:41.750Z,100.00
2022-12-01T21:55:17.076Z,100.00
2022-12-01T21:57:47.401Z,100.00
2022-12-01T22:00:34.729Z,100.00
2022-12-01T22:03:01.293Z,100.00
2022-12-01T22:05:35.263Z,100.00
2022-12-01T22:08:14.004Z,100.00
2022-12-01T22:11:15.867Z,100.00
2022-12-01T22:13:45.000Z,100.00
2022-12-01T22:16:13.760Z,100.00
2022-12-01T22:18:43.018Z,100.00
2022-12-01T22:21:45.688Z,100.00
2022-12-01T22:24:36.995Z,100.00
2022-12-01T22:27:23.640Z,100.00
2022-12-01T22:29:52.932Z,100.00
2022-12-01T22:32:41.484Z,100.00
2022-12-01T22:35:28.144Z,100.00
2022-12-01T22:38:20.372Z,100.00
2022-12-01T22:41:19.175Z,100.00
2022-12-01T22:43:50.193Z,100.00
2022-12-01T22:46:21.524Z,100.00
2022-12-01T22:48:52.708Z,100.00
2022-12-01T22:51:49.857Z,100.00
2022-12-01T22:54:16.339Z,100.00
2022-12-01T22:56:53.895Z,100.00
2022-12-01T22:59:37.431Z,100.00
2022-12-01T23:02:20.546Z,100.00
2022-12-01T23:04:49.420Z,100.00
2022-12-01T23:07:32.782Z,100.00
2022-12-01T23:10:30.004Z,100.00
2022-12-01T23:13:00.416Z,100.00
2022-12-01T23:15:33.207Z,100.00
2022-12-01T23:18:28.272Z,100.00
2022-12-01T23:20:57.267Z,100.00
2022-12-01T23:23:32.092Z,100.00
2022-12-01T23:26:01.247Z,100.00
2022-12-01T23:28:29.942Z,100.00
2022-12-01T23:30:59.601Z,100.00
2022-12-01T23:33:29.421Z,100.00
2022-12-01T23:35:57.710Z,100.00
2022-12-01T23:38:38.783Z,100.00
2022-12-01T23:41:26.969Z,100.00
2022-12-01T23:43:55.811Z,100.00
2022-12-01T23:46:24.531Z,100.00
2022-12-01T23:48:55.236Z,100.00
2022-12-01T23:51:32.392Z,100.00
2022-12-01T23:54:01.587Z,100.00
2022-12-01T23:56:30.517Z,100.00
2022-12-01T23:59:00.743Z,100.00
